sensor_id;sensor_type;location;lat;lon;timestamp;P1;durP1;ratioP1;P2;durP2;ratioP2
20318;SDS011;10317;47.254;11.314;2022-12-07T00:01:45;11.20;;;8.98;;
20318;SDS011;10317;47.254;11.314;2022-12-07T00:04:12;11.70;;;8.52;;
20318;SDS011;10317;47.254;11.314;2022-12-07T00:06:51;12.38;;;9.05;;
20318;SDS011;10317;47.254;11.314;2022-12-07T00:09:17;12.80;;;8.77;;
20318;SDS011;10317;47.254;11.314;2022-12-07T00:11:44;13.55;;;9.50;;
20318;SDS011;10317;47.254;11.314;2022-12-07T00:14:14;13.75;;;9.55;;
20318;SDS011;10317;47.254;11.314;2022-12-07T00:16:41;12.93;;;8.57;;
20318;SDS011;10317;47.254;11.314;2022-12-07T00:19:08;11.07;;;8.85;;
20318;SDS011;10317;47.254;11.314;2022-12-07T00:21:35;11.70;;;8.45;;
20318;SDS011;10317;47.254;11.314;2022-12-07T00:24:04;11.32;;;8.70;;
20318;SDS011;10317;47.254;11.314;2022-12-07T00:26:35;11.68;;;8.50;;
20318;SDS011;10317;47.254;11.314;2022-12-07T00:29:04;12.90;;;8.57;;
20318;SDS011;10317;47.254;11.314;2022-12-07T00:31:32;10.90;;;7.88;;
20318;SDS011;10317;47.254;11.314;2022-12-07T00:34:01;10.40;;;8.05;;
20318;SDS011;10317;47.254;11.314;2022-12-07T00:36:27;10.98;;;8.10;;
20318;SDS011;10317;47.254;11.314;2022-12-07T00:38:53;12.02;;;8.02;;
20318;SDS011;10317;47.254;11.314;2022-12-07T00:41:20;12.35;;;8.52;;
20318;SDS011;10317;47.254;11.314;2022-12-07T00:43:48;10.65;;;7.97;;
20318;SDS011;10317;47.254;11.314;2022-12-07T00:46:15;10.95;;;7.55;;
20318;SDS011;10317;47.254;11.314;2022-12-07T00:48:41;12.52;;;8.15;;
20318;SDS011;10317;47.254;11.314;2022-12-07T00:51:07;12.43;;;8.02;;
20318;SDS011;10317;47.254;11.314;2022-12-07T00:53:38;11.98;;;8.73;;
20318;SDS011;10317;47.254;11.314;2022-12-07T00:56:14;12.10;;;8.13;;
20318;SDS011;10317;47.254;11.314;2022-12-07T00:58:49;15.38;;;8.07;;
20318;SDS011;10317;47.254;11.314;2022-12-07T01:01:16;13.35;;;9.23;;
20318;SDS011;10317;47.254;11.314;2022-12-07T01:03:41;10.93;;;7.60;;
20318;SDS011;10317;47.254;11.314;2022-12-07T01:06:07;9.32;;;7.15;;
20318;SDS011;10317;47.254;11.314;2022-12-07T01:08:33;9.82;;;7.10;;
20318;SDS011;10317;47.254;11.314;2022-12-07T01:10:59;12.30;;;8.35;;
20318;SDS011;10317;47.254;11.314;2022-12-07T01:13:27;12.23;;;8.00;;
20318;SDS011;10317;47.254;11.314;2022-12-07T01:15:56;12.70;;;7.82;;
20318;SDS011;10317;47.254;11.314;2022-12-07T01:18:23;10.73;;;7.90;;
20318;SDS011;10317;47.254;11.314;2022-12-07T01:21:02;10.57;;;8.20;;
20318;SDS011;10317;47.254;11.314;2022-12-07T01:23:36;9.27;;;7.32;;
20318;SDS011;10317;47.254;11.314;2022-12-07T01:26:03;9.07;;;6.78;;
20318;SDS011;10317;47.254;11.314;2022-12-07T01:28:31;13.10;;;7.53;;
20318;SDS011;10317;47.254;11.314;2022-12-07T01:31:07;10.43;;;8.20;;
20318;SDS011;10317;47.254;11.314;2022-12-07T01:33:36;11.02;;;7.93;;
20318;SDS011;10317;47.254;11.314;2022-12-07T01:36:04;9.20;;;7.05;;
20318;SDS011;10317;47.254;11.314;2022-12-07T01:38:31;12.95;;;8.13;;
20318;SDS011;10317;47.254;11.314;2022-12-07T01:40:58;11.52;;;7.28;;
20318;SDS011;10317;47.254;11.314;2022-12-07T01:43:25;13.82;;;7.97;;
20318;SDS011;10317;47.254;11.314;2022-12-07T01:45:53;9.52;;;7.05;;
20318;SDS011;10317;47.254;11.314;2022-12-07T01:48:20;9.70;;;7.43;;
20318;SDS011;10317;47.254;11.314;2022-12-07T01:50:51;11.52;;;7.95;;
20318;SDS011;10317;47.254;11.314;2022-12-07T01:53:18;12.95;;;7.80;;
20318;SDS011;10317;47.254;11.314;2022-12-07T01:55:46;9.85;;;7.78;;
20318;SDS011;10317;47.254;11.314;2022-12-07T01:58:15;13.05;;;8.50;;
20318;SDS011;10317;47.254;11.314;2022-12-07T02:00:41;10.73;;;7.90;;
20318;SDS011;10317;47.254;11.314;2022-12-07T02:03:12;9.60;;;7.20;;
20318;SDS011;10317;47.254;11.314;2022-12-07T02:05:59;10.75;;;6.97;;
20318;SDS011;10317;47.254;11.314;2022-12-07T02:08:25;9.32;;;7.40;;
20318;SDS011;10317;47.254;11.314;2022-12-07T02:10:51;8.75;;;7.03;;
20318;SDS011;10317;47.254;11.314;2022-12-07T02:13:24;9.05;;;7.10;;
20318;SDS011;10317;47.254;11.314;2022-12-07T02:21:23;12.07;;;7.07;;
20318;SDS011;10317;47.254;11.314;2022-12-07T02:27:31;13.07;;;7.25;;
20318;SDS011;10317;47.254;11.314;2022-12-07T02:30:10;9.25;;;7.30;;
20318;SDS011;10317;47.254;11.314;2022-12-07T02:35:20;11.40;;;7.45;;
20318;SDS011;10317;47.254;11.314;2022-12-07T02:38:38;10.73;;;8.05;;
20318;SDS011;10317;47.254;11.314;2022-12-07T02:41:03;13.70;;;8.68;;
20318;SDS011;10317;47.254;11.314;2022-12-07T02:44:10;10.45;;;7.63;;
20318;SDS011;10317;47.254;11.314;2022-12-07T02:46:38;11.80;;;7.85;;
20318;SDS011;10317;47.254;11.314;2022-12-07T02:49:07;9.43;;;7.28;;
20318;SDS011;10317;47.254;11.314;2022-12-07T02:51:38;8.70;;;7.57;;
20318;SDS011;10317;47.254;11.314;2022-12-07T02:54:19;8.52;;;7.18;;
20318;SDS011;10317;47.254;11.314;2022-12-07T03:08:07;10.57;;;7.88;;
20318;SDS011;10317;47.254;11.314;2022-12-07T03:19:17;11.27;;;7.78;;
20318;SDS011;10317;47.254;11.314;2022-12-07T03:21:47;11.57;;;7.65;;
20318;SDS011;10317;47.254;11.314;2022-12-07T03:24:19;17.55;;;8.23;;
20318;SDS011;10317;47.254;11.314;2022-12-07T03:26:52;11.60;;;7.90;;
20318;SDS011;10317;47.254;11.314;2022-12-07T03:29:28;13.27;;;7.43;;
20318;SDS011;10317;47.254;11.314;2022-12-07T03:32:04;11.85;;;8.73;;
20318;SDS011;10317;47.254;11.314;2022-12-07T03:40:39;9.90;;;7.72;;
20318;SDS011;10317;47.254;11.314;2022-12-07T03:43:54;10.77;;;7.25;;
20318;SDS011;10317;47.254;11.314;2022-12-07T03:54:01;11.57;;;8.25;;
20318;SDS011;10317;47.254;11.314;2022-12-07T04:00:27;10.18;;;7.38;;
20318;SDS011;10317;47.254;11.314;2022-12-07T04:02:54;12.00;;;7.97;;
20318;SDS011;10317;47.254;11.314;2022-12-07T04:05:20;11.38;;;7.45;;
20318;SDS011;10317;47.254;11.314;2022-12-07T04:07:48;11.93;;;8.48;;
20318;SDS011;10317;47.254;11.314;2022-12-07T04:10:14;10.07;;;8.05;;
20318;SDS011;10317;47.254;11.314;2022-12-07T04:12:39;9.75;;;7.97;;
20318;SDS011;10317;47.254;11.314;2022-12-07T04:15:05;13.90;;;7.85;;
20318;SDS011;10317;47.254;11.314;2022-12-07T04:17:32;11.55;;;7.93;;
20318;SDS011;10317;47.254;11.314;2022-12-07T04:19:57;12.20;;;8.55;;
20318;SDS011;10317;47.254;11.314;2022-12-07T04:22:23;10.57;;;7.32;;
20318;SDS011;10317;47.254;11.314;2022-12-07T04:24:49;10.30;;;7.53;;
20318;SDS011;10317;47.254;11.314;2022-12-07T04:27:14;7.78;;;7.00;;
20318;SDS011;10317;47.254;11.314;2022-12-07T04:29:40;10.98;;;7.70;;
20318;SDS011;10317;47.254;11.314;2022-12-07T04:32:06;11.52;;;8.27;;
20318;SDS011;10317;47.254;11.314;2022-12-07T04:34:31;10.63;;;7.72;;
20318;SDS011;10317;47.254;11.314;2022-12-07T04:36:57;9.80;;;7.65;;
20318;SDS011;10317;47.254;11.314;2022-12-07T04:41:58;9.15;;;7.53;;
20318;SDS011;10317;47.254;11.314;2022-12-07T04:44:25;8.43;;;7.30;;
20318;SDS011;10317;47.254;11.314;2022-12-07T04:46:51;11.32;;;8.13;;
20318;SDS011;10317;47.254;11.314;2022-12-07T04:49:18;9.45;;;7.28;;
20318;SDS011;10317;47.254;11.314;2022-12-07T04:51:44;10.43;;;8.00;;
20318;SDS011;10317;47.254;11.314;2022-12-07T04:54:11;8.82;;;7.45;;
20318;SDS011;10317;47.254;11.314;2022-12-07T04:56:37;12.45;;;7.97;;
20318;SDS011;10317;47.254;11.314;2022-12-07T04:59:03;8.40;;;6.72;;
20318;SDS011;10317;47.254;11.314;2022-12-07T05:01:30;10.57;;;8.32;;
20318;SDS011;10317;47.254;11.314;2022-12-07T05:03:56;11.30;;;7.05;;
20318;SDS011;10317;47.254;11.314;2022-12-07T05:06:22;10.57;;;7.82;;
20318;SDS011;10317;47.254;11.314;2022-12-07T05:08:48;12.18;;;7.53;;
20318;SDS011;10317;47.254;11.314;2022-12-07T05:11:14;10.05;;;7.68;;
20318;SDS011;10317;47.254;11.314;2022-12-07T05:14:00;10.75;;;7.40;;
20318;SDS011;10317;47.254;11.314;2022-12-07T05:16:27;9.50;;;8.35;;
20318;SDS011;10317;47.254;11.314;2022-12-07T05:18:53;11.27;;;9.40;;
20318;SDS011;10317;47.254;11.314;2022-12-07T05:21:20;10.40;;;8.10;;
20318;SDS011;10317;47.254;11.314;2022-12-07T05:23:45;10.23;;;7.80;;
20318;SDS011;10317;47.254;11.314;2022-12-07T05:26:11;10.73;;;7.53;;
20318;SDS011;10317;47.254;11.314;2022-12-07T05:28:37;12.75;;;8.18;;
20318;SDS011;10317;47.254;11.314;2022-12-07T05:31:03;10.38;;;7.95;;
20318;SDS011;10317;47.254;11.314;2022-12-07T05:33:29;10.07;;;7.45;;
20318;SDS011;10317;47.254;11.314;2022-12-07T05:35:54;11.55;;;7.28;;
20318;SDS011;10317;47.254;11.314;2022-12-07T05:38:20;10.40;;;7.47;;
20318;SDS011;10317;47.254;11.314;2022-12-07T05:40:46;10.77;;;7.28;;
20318;SDS011;10317;47.254;11.314;2022-12-07T05:43:11;10.00;;;7.65;;
20318;SDS011;10317;47.254;11.314;2022-12-07T05:45:37;10.80;;;7.32;;
20318;SDS011;10317;47.254;11.314;2022-12-07T05:48:03;9.43;;;7.43;;
20318;SDS011;10317;47.254;11.314;2022-12-07T05:50:29;11.80;;;7.82;;
20318;SDS011;10317;47.254;11.314;2022-12-07T05:52:54;11.02;;;7.43;;
20318;SDS011;10317;47.254;11.314;2022-12-07T05:55:20;11.77;;;7.22;;
20318;SDS011;10317;47.254;11.314;2022-12-07T05:57:46;11.52;;;7.82;;
20318;SDS011;10317;47.254;11.314;2022-12-07T06:00:30;11.15;;;7.28;;
20318;SDS011;10317;47.254;11.314;2022-12-07T06:02:55;9.18;;;7.20;;
20318;SDS011;10317;47.254;11.314;2022-12-07T06:05:22;9.52;;;6.70;;
20318;SDS011;10317;47.254;11.314;2022-12-07T06:07:48;8.35;;;7.47;;
20318;SDS011;10317;47.254;11.314;2022-12-07T06:10:13;9.02;;;7.20;;
20318;SDS011;10317;47.254;11.314;2022-12-07T06:12:39;9.02;;;7.05;;
20318;SDS011;10317;47.254;11.314;2022-12-07T06:15:07;8.55;;;6.40;;
20318;SDS011;10317;47.254;11.314;2022-12-07T06:17:34;13.70;;;7.38;;
20318;SDS011;10317;47.254;11.314;2022-12-07T06:20:00;11.15;;;7.38;;
20318;SDS011;10317;47.254;11.314;2022-12-07T06:22:26;11.57;;;7.63;;
20318;SDS011;10317;47.254;11.314;2022-12-07T06:24:51;10.32;;;7.13;;
20318;SDS011;10317;47.254;11.314;2022-12-07T06:27:17;11.95;;;7.30;;
20318;SDS011;10317;47.254;11.314;2022-12-07T06:29:43;8.63;;;7.72;;
20318;SDS011;10317;47.254;11.314;2022-12-07T06:32:09;11.45;;;7.50;;
20318;SDS011;10317;47.254;11.314;2022-12-07T06:34:35;8.27;;;6.57;;
20318;SDS011;10317;47.254;11.314;2022-12-07T06:37:01;10.07;;;6.97;;
20318;SDS011;10317;47.254;11.314;2022-12-07T06:39:28;9.85;;;7.13;;
20318;SDS011;10317;47.254;11.314;2022-12-07T06:41:54;9.13;;;7.03;;
20318;SDS011;10317;47.254;11.314;2022-12-07T06:44:20;10.52;;;7.32;;
20318;SDS011;10317;47.254;11.314;2022-12-07T06:46:47;8.88;;;7.35;;
20318;SDS011;10317;47.254;11.314;2022-12-07T06:49:13;9.38;;;7.03;;
20318;SDS011;10317;47.254;11.314;2022-12-07T06:51:39;9.57;;;7.70;;
20318;SDS011;10317;47.254;11.314;2022-12-07T06:54:12;12.15;;;7.38;;
20318;SDS011;10317;47.254;11.314;2022-12-07T06:56:39;10.05;;;7.72;;
20318;SDS011;10317;47.254;11.314;2022-12-07T06:59:05;11.63;;;7.35;;
20318;SDS011;10317;47.254;11.314;2022-12-07T07:01:32;10.57;;;7.60;;
20318;SDS011;10317;47.254;11.314;2022-12-07T07:03:59;11.65;;;7.55;;
20318;SDS011;10317;47.254;11.314;2022-12-07T07:06:24;9.93;;;7.05;;
20318;SDS011;10317;47.254;11.314;2022-12-07T07:08:50;10.98;;;7.90;;
20318;SDS011;10317;47.254;11.314;2022-12-07T07:11:16;11.40;;;8.18;;
20318;SDS011;10317;47.254;11.314;2022-12-07T07:13:42;11.15;;;7.63;;
20318;SDS011;10317;47.254;11.314;2022-12-07T07:16:08;9.75;;;7.22;;
20318;SDS011;10317;47.254;11.314;2022-12-07T07:18:34;11.23;;;7.88;;
20318;SDS011;10317;47.254;11.314;2022-12-07T07:21:00;13.40;;;8.52;;
20318;SDS011;10317;47.254;11.314;2022-12-07T07:23:26;9.63;;;7.63;;
20318;SDS011;10317;47.254;11.314;2022-12-07T07:25:51;9.00;;;8.02;;
20318;SDS011;10317;47.254;11.314;2022-12-07T07:28:17;13.13;;;7.35;;
20318;SDS011;10317;47.254;11.314;2022-12-07T07:30:43;10.68;;;7.50;;
20318;SDS011;10317;47.254;11.314;2022-12-07T07:33:09;8.70;;;7.10;;
20318;SDS011;10317;47.254;11.314;2022-12-07T07:35:35;11.05;;;7.53;;
20318;SDS011;10317;47.254;11.314;2022-12-07T07:38:01;8.85;;;6.38;;
20318;SDS011;10317;47.254;11.314;2022-12-07T07:40:28;8.95;;;7.30;;
20318;SDS011;10317;47.254;11.314;2022-12-07T07:42:54;10.10;;;7.90;;
20318;SDS011;10317;47.254;11.314;2022-12-07T07:45:21;10.23;;;8.20;;
20318;SDS011;10317;47.254;11.314;2022-12-07T07:47:48;11.30;;;7.68;;
20318;SDS011;10317;47.254;11.314;2022-12-07T07:50:14;10.07;;;7.18;;
20318;SDS011;10317;47.254;11.314;2022-12-07T07:52:45;9.75;;;7.50;;
20318;SDS011;10317;47.254;11.314;2022-12-07T07:55:10;9.38;;;7.65;;
20318;SDS011;10317;47.254;11.314;2022-12-07T07:57:38;9.30;;;7.97;;
20318;SDS011;10317;47.254;11.314;2022-12-07T08:00:05;9.43;;;7.30;;
20318;SDS011;10317;47.254;11.314;2022-12-07T08:02:36;8.77;;;7.25;;
20318;SDS011;10317;47.254;11.314;2022-12-07T08:05:02;10.35;;;7.38;;
20318;SDS011;10317;47.254;11.314;2022-12-07T08:07:28;11.60;;;7.35;;
20318;SDS011;10317;47.254;11.314;2022-12-07T08:09:54;10.82;;;7.22;;
20318;SDS011;10317;47.254;11.314;2022-12-07T08:12:19;9.95;;;7.68;;
20318;SDS011;10317;47.254;11.314;2022-12-07T08:14:48;9.60;;;7.78;;
20318;SDS011;10317;47.254;11.314;2022-12-07T08:17:14;10.30;;;7.50;;
20318;SDS011;10317;47.254;11.314;2022-12-07T08:19:40;13.02;;;9.75;;
20318;SDS011;10317;47.254;11.314;2022-12-07T08:22:07;13.35;;;9.30;;
20318;SDS011;10317;47.254;11.314;2022-12-07T08:24:36;13.15;;;8.48;;
20318;SDS011;10317;47.254;11.314;2022-12-07T08:27:04;13.50;;;10.20;;
20318;SDS011;10317;47.254;11.314;2022-12-07T08:29:31;13.65;;;9.85;;
20318;SDS011;10317;47.254;11.314;2022-12-07T08:31:57;12.27;;;8.23;;
20318;SDS011;10317;47.254;11.314;2022-12-07T08:34:26;9.07;;;7.95;;
20318;SDS011;10317;47.254;11.314;2022-12-07T08:36:52;11.27;;;8.30;;
20318;SDS011;10317;47.254;11.314;2022-12-07T08:39:21;11.43;;;8.18;;
20318;SDS011;10317;47.254;11.314;2022-12-07T08:42:01;9.68;;;7.45;;
20318;SDS011;10317;47.254;11.314;2022-12-07T08:44:26;14.32;;;8.50;;
20318;SDS011;10317;47.254;11.314;2022-12-07T08:47:00;9.73;;;8.35;;
20318;SDS011;10317;47.254;11.314;2022-12-07T08:49:43;9.80;;;7.63;;
20318;SDS011;10317;47.254;11.314;2022-12-07T08:55:10;7.95;;;6.95;;
20318;SDS011;10317;47.254;11.314;2022-12-07T08:57:40;9.98;;;7.50;;
20318;SDS011;10317;47.254;11.314;2022-12-07T09:00:07;9.30;;;7.35;;
20318;SDS011;10317;47.254;11.314;2022-12-07T09:02:35;8.05;;;6.82;;
20318;SDS011;10317;47.254;11.314;2022-12-07T09:05:14;9.70;;;7.07;;
20318;SDS011;10317;47.254;11.314;2022-12-07T09:07:40;10.07;;;7.20;;
20318;SDS011;10317;47.254;11.314;2022-12-07T09:10:08;8.15;;;6.70;;
20318;SDS011;10317;47.254;11.314;2022-12-07T09:12:34;8.60;;;7.03;;
20318;SDS011;10317;47.254;11.314;2022-12-07T09:15:00;8.60;;;7.07;;
20318;SDS011;10317;47.254;11.314;2022-12-07T09:17:27;13.85;;;7.28;;
20318;SDS011;10317;47.254;11.314;2022-12-07T09:20:06;11.20;;;7.07;;
20318;SDS011;10317;47.254;11.314;2022-12-07T09:22:34;8.65;;;7.30;;
20318;SDS011;10317;47.254;11.314;2022-12-07T09:25:02;9.73;;;7.03;;
20318;SDS011;10317;47.254;11.314;2022-12-07T09:27:30;11.00;;;7.45;;
20318;SDS011;10317;47.254;11.314;2022-12-07T09:30:03;8.90;;;7.32;;
20318;SDS011;10317;47.254;11.314;2022-12-07T09:32:32;10.50;;;7.97;;
20318;SDS011;10317;47.254;11.314;2022-12-07T09:35:02;9.20;;;7.47;;
20318;SDS011;10317;47.254;11.314;2022-12-07T09:37:29;8.00;;;7.20;;
20318;SDS011;10317;47.254;11.314;2022-12-07T09:40:00;9.30;;;7.43;;
20318;SDS011;10317;47.254;11.314;2022-12-07T09:42:38;9.00;;;7.22;;
20318;SDS011;10317;47.254;11.314;2022-12-07T09:45:14;8.93;;;6.90;;
20318;SDS011;10317;47.254;11.314;2022-12-07T09:47:44;10.27;;;6.75;;
20318;SDS011;10317;47.254;11.314;2022-12-07T09:50:15;11.20;;;6.32;;
20318;SDS011;10317;47.254;11.314;2022-12-07T09:52:44;9.73;;;6.90;;
20318;SDS011;10317;47.254;11.314;2022-12-07T09:55:14;8.35;;;7.43;;
20318;SDS011;10317;47.254;11.314;2022-12-07T09:57:42;9.57;;;7.43;;
20318;SDS011;10317;47.254;11.314;2022-12-07T10:00:13;9.90;;;7.43;;
20318;SDS011;10317;47.254;11.314;2022-12-07T10:02:41;11.65;;;8.10;;
20318;SDS011;10317;47.254;11.314;2022-12-07T10:05:12;9.70;;;7.35;;
20318;SDS011;10317;47.254;11.314;2022-12-07T10:07:44;9.65;;;7.22;;
20318;SDS011;10317;47.254;11.314;2022-12-07T10:10:53;8.15;;;6.80;;
20318;SDS011;10317;47.254;11.314;2022-12-07T10:13:07;6.65;;;5.97;;
20318;SDS011;10317;47.254;11.314;2022-12-07T10:15:46;8.65;;;6.20;;
20318;SDS011;10317;47.254;11.314;2022-12-07T10:18:18;7.20;;;6.50;;
20318;SDS011;10317;47.254;11.314;2022-12-07T10:21:22;11.20;;;7.18;;
20318;SDS011;10317;47.254;11.314;2022-12-07T10:23:59;11.10;;;6.75;;
20318;SDS011;10317;47.254;11.314;2022-12-07T10:28:54;7.28;;;6.50;;
20318;SDS011;10317;47.254;11.314;2022-12-07T10:31:21;8.23;;;6.38;;
20318;SDS011;10317;47.254;11.314;2022-12-07T10:36:18;6.72;;;5.93;;
20318;SDS011;10317;47.254;11.314;2022-12-07T10:38:47;6.70;;;5.97;;
20318;SDS011;10317;47.254;11.314;2022-12-07T10:41:14;6.60;;;6.00;;
20318;SDS011;10317;47.254;11.314;2022-12-07T10:43:47;7.57;;;5.03;;
20318;SDS011;10317;47.254;11.314;2022-12-07T10:46:25;6.50;;;4.78;;
20318;SDS011;10317;47.254;11.314;2022-12-07T10:52:44;6.38;;;5.20;;
20318;SDS011;10317;47.254;11.314;2022-12-07T11:00:43;6.53;;;5.18;;
20318;SDS011;10317;47.254;11.314;2022-12-07T11:03:46;7.18;;;5.22;;
20318;SDS011;10317;47.254;11.314;2022-12-07T11:06:54;7.85;;;5.30;;
20318;SDS011;10317;47.254;11.314;2022-12-07T11:09:46;6.15;;;5.40;;
20318;SDS011;10317;47.254;11.314;2022-12-07T11:12:24;5.05;;;4.60;;
20318;SDS011;10317;47.254;11.314;2022-12-07T11:14:54;13.85;;;5.75;;
20318;SDS011;10317;47.254;11.314;2022-12-07T11:23:19;12.45;;;5.25;;
20318;SDS011;10317;47.254;11.314;2022-12-07T11:37:35;7.97;;;5.45;;
20318;SDS011;10317;47.254;11.314;2022-12-07T11:40:24;6.72;;;5.32;;
20318;SDS011;10317;47.254;11.314;2022-12-07T11:45:26;6.03;;;4.63;;
20318;SDS011;10317;47.254;11.314;2022-12-07T12:03:51;8.70;;;5.82;;
20318;SDS011;10317;47.254;11.314;2022-12-07T12:06:43;10.20;;;6.50;;
20318;SDS011;10317;47.254;11.314;2022-12-07T12:09:17;9.63;;;6.60;;
20318;SDS011;10317;47.254;11.314;2022-12-07T12:12:25;10.73;;;6.22;;
20318;SDS011;10317;47.254;11.314;2022-12-07T12:20:46;9.43;;;6.93;;
20318;SDS011;10317;47.254;11.314;2022-12-07T12:23:44;15.40;;;7.65;;
20318;SDS011;10317;47.254;11.314;2022-12-07T12:26:24;15.20;;;7.88;;
20318;SDS011;10317;47.254;11.314;2022-12-07T12:28:59;9.55;;;6.72;;
20318;SDS011;10317;47.254;11.314;2022-12-07T12:31:33;10.43;;;7.22;;
20318;SDS011;10317;47.254;11.314;2022-12-07T12:34:29;8.70;;;7.05;;
20318;SDS011;10317;47.254;11.314;2022-12-07T12:42:44;12.15;;;6.38;;
20318;SDS011;10317;47.254;11.314;2022-12-07T12:45:24;6.70;;;6.05;;
20318;SDS011;10317;47.254;11.314;2022-12-07T12:48:01;10.38;;;6.50;;
20318;SDS011;10317;47.254;11.314;2022-12-07T12:50:29;10.85;;;5.95;;
20318;SDS011;10317;47.254;11.314;2022-12-07T12:58:33;9.00;;;6.72;;
20318;SDS011;10317;47.254;11.314;2022-12-07T13:04:21;7.90;;;6.32;;
20318;SDS011;10317;47.254;11.314;2022-12-07T13:06:50;10.40;;;7.75;;
20318;SDS011;10317;47.254;11.314;2022-12-07T13:12:18;18.05;;;8.02;;
20318;SDS011;10317;47.254;11.314;2022-12-07T13:14:53;15.48;;;8.18;;
20318;SDS011;10317;47.254;11.314;2022-12-07T13:18:16;14.75;;;7.50;;
20318;SDS011;10317;47.254;11.314;2022-12-07T13:20:08;17.75;;;7.93;;
20318;SDS011;10317;47.254;11.314;2022-12-07T13:22:39;21.30;;;7.97;;
20318;SDS011;10317;47.254;11.314;2022-12-07T13:27:43;12.45;;;7.55;;
20318;SDS011;10317;47.254;11.314;2022-12-07T13:30:23;8.98;;;7.03;;
20318;SDS011;10317;47.254;11.314;2022-12-07T13:32:55;15.85;;;6.85;;
20318;SDS011;10317;47.254;11.314;2022-12-07T13:35:29;14.05;;;7.18;;
20318;SDS011;10317;47.254;11.314;2022-12-07T13:38:16;11.98;;;6.10;;
20318;SDS011;10317;47.254;11.314;2022-12-07T13:41:04;12.05;;;7.32;;
20318;SDS011;10317;47.254;11.314;2022-12-07T13:43:44;13.95;;;6.45;;
20318;SDS011;10317;47.254;11.314;2022-12-07T13:46:13;10.18;;;6.20;;
20318;SDS011;10317;47.254;11.314;2022-12-07T13:48:49;10.88;;;6.30;;
20318;SDS011;10317;47.254;11.314;2022-12-07T13:51:25;9.77;;;5.82;;
20318;SDS011;10317;47.254;11.314;2022-12-07T13:53:54;10.95;;;5.90;;
20318;SDS011;10317;47.254;11.314;2022-12-07T13:56:31;8.15;;;6.60;;
20318;SDS011;10317;47.254;11.314;2022-12-07T13:58:59;10.88;;;6.70;;
20318;SDS011;10317;47.254;11.314;2022-12-07T14:01:25;11.38;;;6.47;;
20318;SDS011;10317;47.254;11.314;2022-12-07T14:03:51;7.55;;;6.10;;
20318;SDS011;10317;47.254;11.314;2022-12-07T14:08:50;10.23;;;6.03;;
20318;SDS011;10317;47.254;11.314;2022-12-07T14:11:30;14.52;;;6.30;;
20318;SDS011;10317;47.254;11.314;2022-12-07T14:14:00;10.63;;;6.40;;
20318;SDS011;10317;47.254;11.314;2022-12-07T14:16:34;10.80;;;6.20;;
20318;SDS011;10317;47.254;11.314;2022-12-07T14:19:05;8.38;;;6.70;;
20318;SDS011;10317;47.254;11.314;2022-12-07T14:22:08;11.10;;;6.65;;
20318;SDS011;10317;47.254;11.314;2022-12-07T14:24:47;13.80;;;6.75;;
20318;SDS011;10317;47.254;11.314;2022-12-07T14:27:21;9.85;;;5.68;;
20318;SDS011;10317;47.254;11.314;2022-12-07T14:29:50;6.75;;;5.75;;
20318;SDS011;10317;47.254;11.314;2022-12-07T14:34:55;9.30;;;5.88;;
20318;SDS011;10317;47.254;11.314;2022-12-07T14:37:35;6.10;;;5.47;;
20318;SDS011;10317;47.254;11.314;2022-12-07T14:40:02;5.90;;;5.40;;
20318;SDS011;10317;47.254;11.314;2022-12-07T14:42:28;10.50;;;6.65;;
20318;SDS011;10317;47.254;11.314;2022-12-07T14:44:56;7.10;;;6.22;;
20318;SDS011;10317;47.254;11.314;2022-12-07T14:47:23;11.35;;;5.55;;
20318;SDS011;10317;47.254;11.314;2022-12-07T14:49:49;9.13;;;6.35;;
20318;SDS011;10317;47.254;11.314;2022-12-07T14:52:23;7.55;;;5.35;;
20318;SDS011;10317;47.254;11.314;2022-12-07T14:55:00;9.52;;;5.60;;
20318;SDS011;10317;47.254;11.314;2022-12-07T14:57:25;6.93;;;5.50;;
20318;SDS011;10317;47.254;11.314;2022-12-07T14:59:51;7.20;;;5.55;;
20318;SDS011;10317;47.254;11.314;2022-12-07T15:02:17;8.38;;;5.70;;
20318;SDS011;10317;47.254;11.314;2022-12-07T15:04:42;7.32;;;5.82;;
20318;SDS011;10317;47.254;11.314;2022-12-07T15:07:17;7.55;;;6.43;;
20318;SDS011;10317;47.254;11.314;2022-12-07T15:09:45;6.85;;;5.97;;
20318;SDS011;10317;47.254;11.314;2022-12-07T15:12:11;8.70;;;5.50;;
20318;SDS011;10317;47.254;11.314;2022-12-07T15:14:36;9.88;;;6.13;;
20318;SDS011;10317;47.254;11.314;2022-12-07T15:17:02;6.13;;;5.28;;
20318;SDS011;10317;47.254;11.314;2022-12-07T15:19:28;9.32;;;5.78;;
20318;SDS011;10317;47.254;11.314;2022-12-07T15:21:54;7.78;;;5.82;;
20318;SDS011;10317;47.254;11.314;2022-12-07T15:24:20;9.90;;;6.35;;
20318;SDS011;10317;47.254;11.314;2022-12-07T15:26:46;8.60;;;5.75;;
20318;SDS011;10317;47.254;11.314;2022-12-07T15:29:12;9.90;;;6.13;;
20318;SDS011;10317;47.254;11.314;2022-12-07T15:31:39;7.75;;;5.80;;
20318;SDS011;10317;47.254;11.314;2022-12-07T15:34:05;9.10;;;5.60;;
20318;SDS011;10317;47.254;11.314;2022-12-07T15:36:36;6.15;;;5.55;;
20318;SDS011;10317;47.254;11.314;2022-12-07T15:39:29;7.70;;;5.88;;
20318;SDS011;10317;47.254;11.314;2022-12-07T15:41:55;7.68;;;6.00;;
20318;SDS011;10317;47.254;11.314;2022-12-07T15:44:20;7.65;;;5.78;;
20318;SDS011;10317;47.254;11.314;2022-12-07T15:47:07;10.15;;;6.30;;
20318;SDS011;10317;47.254;11.314;2022-12-07T15:49:42;11.23;;;5.90;;
20318;SDS011;10317;47.254;11.314;2022-12-07T15:52:08;9.10;;;6.05;;
20318;SDS011;10317;47.254;11.314;2022-12-07T15:54:34;10.70;;;6.30;;
20318;SDS011;10317;47.254;11.314;2022-12-07T15:57:00;7.70;;;6.18;;
20318;SDS011;10317;47.254;11.314;2022-12-07T15:59:26;7.50;;;5.68;;
20318;SDS011;10317;47.254;11.314;2022-12-07T16:01:53;9.95;;;6.47;;
20318;SDS011;10317;47.254;11.314;2022-12-07T16:04:19;8.05;;;5.90;;
20318;SDS011;10317;47.254;11.314;2022-12-07T16:06:45;7.90;;;6.30;;
20318;SDS011;10317;47.254;11.314;2022-12-07T16:09:11;8.35;;;6.20;;
20318;SDS011;10317;47.254;11.314;2022-12-07T16:11:39;10.43;;;6.53;;
20318;SDS011;10317;47.254;11.314;2022-12-07T16:14:05;7.13;;;6.43;;
20318;SDS011;10317;47.254;11.314;2022-12-07T16:16:33;10.35;;;6.85;;
20318;SDS011;10317;47.254;11.314;2022-12-07T16:18:59;9.02;;;6.57;;
20318;SDS011;10317;47.254;11.314;2022-12-07T16:21:27;7.10;;;6.30;;
20318;SDS011;10317;47.254;11.314;2022-12-07T16:23:52;8.50;;;6.72;;
20318;SDS011;10317;47.254;11.314;2022-12-07T16:26:19;10.63;;;6.45;;
20318;SDS011;10317;47.254;11.314;2022-12-07T16:28:50;7.75;;;6.43;;
20318;SDS011;10317;47.254;11.314;2022-12-07T16:31:17;6.97;;;6.22;;
20318;SDS011;10317;47.254;11.314;2022-12-07T16:33:45;9.20;;;6.53;;
20318;SDS011;10317;47.254;11.314;2022-12-07T16:36:13;7.88;;;6.30;;
20318;SDS011;10317;47.254;11.314;2022-12-07T16:38:41;7.03;;;6.18;;
20318;SDS011;10317;47.254;11.314;2022-12-07T16:41:08;9.43;;;6.32;;
20318;SDS011;10317;47.254;11.314;2022-12-07T17:35:06;9.57;;;7.95;;
20318;SDS011;10317;47.254;11.314;2022-12-07T17:37:32;10.40;;;7.63;;
20318;SDS011;10317;47.254;11.314;2022-12-07T17:39:58;11.98;;;8.82;;
20318;SDS011;10317;47.254;11.314;2022-12-07T17:42:24;12.77;;;8.48;;
20318;SDS011;10317;47.254;11.314;2022-12-07T17:45:08;13.05;;;9.23;;
20318;SDS011;10317;47.254;11.314;2022-12-07T17:47:37;14.45;;;8.07;;
20318;SDS011;10317;47.254;11.314;2022-12-07T17:50:04;16.02;;;8.55;;
20318;SDS011;10317;47.254;11.314;2022-12-07T17:52:31;13.70;;;8.23;;
20318;SDS011;10317;47.254;11.314;2022-12-07T17:55:16;11.93;;;8.18;;